JBU1296 KJFK-TKPK
Flight info
| Callsign | JBU1296 |
|---|---|
| Flight time | N/A |
| Altitude | 35000 |
| Route | SHIPP Y492 SQUAD/M078F350 DCT DARUX L456 HANCY/N0459F350 L456 THANK DCT DANDE G633 GABAR |
| Aircraft | A320/M-SDE3FGHIRWY/LB1 |
Departure
| Time | N/A |
|---|---|
| Airport | John F. Kennedy International Airport (KJFK) |
Arrival
| Time | 2026-04-28 17:19 |
|---|---|
| Airport | Robert L. Bradshaw International Airport (TKPK) |
| Time | Latitude | Longitude | Altitude | Speed | Heading |
|---|---|---|---|---|---|
| 2026-04-28 16:13 | 23.41087 | -66.45385 | 35022 ft | 466 kts | 169° |
| 2026-04-28 16:14 | 23.34767 | -66.44068 | 35022 ft | 466 kts | 169° |
| 2026-04-28 16:15 | 23.22032 | -66.41423 | 35024 ft | 466 kts | 169° |
| 2026-04-28 16:15 | 23.15697 | -66.40100 | 35025 ft | 466 kts | 169° |
| 2026-04-28 16:16 | 23.06178 | -66.38128 | 35028 ft | 467 kts | 169° |
| 2026-04-28 16:17 | 22.96609 | -66.36154 | 35030 ft | 467 kts | 169° |
| 2026-04-28 16:17 | 22.90230 | -66.34827 | 35031 ft | 467 kts | 169° |
| 2026-04-28 16:18 | 22.83854 | -66.33511 | 35030 ft | 466 kts | 169° |
| 2026-04-28 16:18 | 22.77523 | -66.32206 | 35028 ft | 466 kts | 169° |
| 2026-04-28 16:19 | 22.71151 | -66.30895 | 35026 ft | 466 kts | 169° |
| 2026-04-28 16:19 | 22.64787 | -66.29580 | 35025 ft | 466 kts | 169° |
| 2026-04-28 16:20 | 22.58418 | -66.28263 | 35024 ft | 466 kts | 169° |
| 2026-04-28 16:20 | 22.52092 | -66.26964 | 35024 ft | 466 kts | 169° |
| 2026-04-28 16:21 | 22.45724 | -66.25660 | 35023 ft | 466 kts | 169° |
| 2026-04-28 16:21 | 22.39359 | -66.24362 | 35023 ft | 466 kts | 169° |
| 2026-04-28 16:22 | 22.32988 | -66.23062 | 35024 ft | 466 kts | 169° |
| 2026-04-28 16:22 | 22.26616 | -66.21752 | 35025 ft | 466 kts | 169° |
| 2026-04-28 16:23 | 22.20284 | -66.20451 | 35026 ft | 466 kts | 169° |
| 2026-04-28 16:23 | 22.13908 | -66.19142 | 35028 ft | 466 kts | 169° |
| 2026-04-28 16:24 | 22.07531 | -66.17833 | 35029 ft | 467 kts | 169° |
| 2026-04-28 16:24 | 22.01151 | -66.16538 | 35030 ft | 467 kts | 169° |
| 2026-04-28 16:25 | 21.94766 | -66.15237 | 35031 ft | 467 kts | 169° |
| 2026-04-28 16:25 | 21.88421 | -66.13948 | 35032 ft | 467 kts | 169° |
| 2026-04-28 16:26 | 21.82039 | -66.12658 | 35032 ft | 467 kts | 169° |
| 2026-04-28 16:26 | 21.75654 | -66.11359 | 35031 ft | 467 kts | 169° |
| 2026-04-28 16:27 | 21.69269 | -66.10062 | 35031 ft | 467 kts | 169° |
| 2026-04-28 16:28 | 21.59745 | -66.08123 | 35029 ft | 466 kts | 169° |
| 2026-04-28 16:28 | 21.53370 | -66.06833 | 35028 ft | 466 kts | 169° |
| 2026-04-28 16:29 | 21.44031 | -66.04081 | 35024 ft | 466 kts | 152° |
| 2026-04-28 16:30 | 21.35650 | -65.98863 | 35024 ft | 466 kts | 150° |
| 2026-04-28 16:30 | 21.30111 | -65.95438 | 35007 ft | 456 kts | 150° |
| 2026-04-28 16:31 | 21.24628 | -65.92044 | 35007 ft | 455 kts | 150° |
| 2026-04-28 16:31 | 21.19183 | -65.88680 | 35006 ft | 455 kts | 150° |
| 2026-04-28 16:32 | 21.13707 | -65.85294 | 35007 ft | 454 kts | 150° |
| 2026-04-28 16:32 | 21.05490 | -65.80219 | 35009 ft | 454 kts | 150° |
| 2026-04-28 16:33 | 21.01868 | -65.77978 | 35012 ft | 454 kts | 150° |
| 2026-04-28 16:33 | 20.94572 | -65.73479 | 35012 ft | 455 kts | 150° |
| 2026-04-28 16:34 | 20.89088 | -65.70106 | 35014 ft | 455 kts | 150° |
| 2026-04-28 16:34 | 20.83605 | -65.66734 | 35018 ft | 455 kts | 150° |
| 2026-04-28 16:35 | 20.78125 | -65.63347 | 35017 ft | 455 kts | 150° |
| 2026-04-28 16:35 | 20.72699 | -65.60008 | 35018 ft | 455 kts | 150° |
| 2026-04-28 16:36 | 20.67193 | -65.56619 | 35018 ft | 455 kts | 150° |
| 2026-04-28 16:36 | 20.61701 | -65.53246 | 35024 ft | 455 kts | 150° |
| 2026-04-28 16:37 | 20.57134 | -65.50447 | 35023 ft | 456 kts | 150° |
| 2026-04-28 16:38 | 20.48889 | -65.45396 | 35025 ft | 456 kts | 150° |
| 2026-04-28 16:38 | 20.42497 | -65.41488 | 35027 ft | 456 kts | 150° |
| 2026-04-28 16:39 | 20.37926 | -65.38694 | 35026 ft | 456 kts | 150° |
| 2026-04-28 16:39 | 20.32428 | -65.35330 | 35027 ft | 456 kts | 150° |
| 2026-04-28 16:40 | 20.26035 | -65.31430 | 35028 ft | 456 kts | 150° |
| 2026-04-28 16:40 | 20.21429 | -65.28624 | 35027 ft | 456 kts | 150° |
| 2026-04-28 16:41 | 20.15962 | -65.25292 | 35028 ft | 456 kts | 150° |
| 2026-04-28 16:41 | 20.10459 | -65.21942 | 35028 ft | 456 kts | 150° |
| 2026-04-28 16:42 | 20.04955 | -65.18583 | 35028 ft | 456 kts | 150° |
| 2026-04-28 16:42 | 19.99452 | -65.15229 | 35028 ft | 456 kts | 150° |
| 2026-04-28 16:43 | 19.93985 | -65.11910 | 35026 ft | 455 kts | 150° |
| 2026-04-28 16:43 | 19.88489 | -65.08573 | 35024 ft | 455 kts | 150° |
| 2026-04-28 16:44 | 19.82988 | -65.05242 | 35023 ft | 455 kts | 150° |
| 2026-04-28 16:44 | 19.77484 | -65.01909 | 35023 ft | 455 kts | 150° |
| 2026-04-28 16:45 | 19.71984 | -64.98575 | 35024 ft | 455 kts | 150° |
| 2026-04-28 16:45 | 19.66517 | -64.95265 | 35025 ft | 456 kts | 150° |
| 2026-04-28 16:46 | 19.61005 | -64.91935 | 35028 ft | 456 kts | 150° |
| 2026-04-28 16:46 | 19.55563 | -64.88641 | 35029 ft | 456 kts | 150° |
| 2026-04-28 16:47 | 19.50049 | -64.85314 | 35029 ft | 456 kts | 150° |
| 2026-04-28 16:47 | 19.44574 | -64.82007 | 35029 ft | 456 kts | 150° |
| 2026-04-28 16:48 | 19.39061 | -64.78683 | 35029 ft | 456 kts | 150° |
| 2026-04-28 16:48 | 19.33550 | -64.75370 | 35027 ft | 456 kts | 150° |
| 2026-04-28 16:49 | 19.28039 | -64.72053 | 35026 ft | 455 kts | 150° |
| 2026-04-28 16:49 | 19.22572 | -64.68763 | 35026 ft | 455 kts | 150° |
| 2026-04-28 16:50 | 19.17064 | -64.65459 | 35023 ft | 455 kts | 150° |
| 2026-04-28 16:50 | 19.11557 | -64.62147 | 35023 ft | 455 kts | 150° |
| 2026-04-28 16:51 | 19.06053 | -64.58836 | 35024 ft | 455 kts | 150° |
| 2026-04-28 16:51 | 19.00573 | -64.55558 | 35024 ft | 455 kts | 150° |
| 2026-04-28 16:52 | 18.95063 | -64.52252 | 35024 ft | 455 kts | 150° |
| 2026-04-28 16:52 | 18.89555 | -64.48953 | 35024 ft | 455 kts | 150° |
| 2026-04-28 16:53 | 18.84049 | -64.45652 | 35024 ft | 455 kts | 150° |
| 2026-04-28 16:53 | 18.78534 | -64.42357 | 35023 ft | 455 kts | 151° |
| 2026-04-28 16:54 | 18.73060 | -64.39092 | 35023 ft | 455 kts | 151° |
| 2026-04-28 16:54 | 18.67564 | -64.35818 | 35023 ft | 455 kts | 151° |
| 2026-04-28 16:55 | 18.62048 | -64.32529 | 35023 ft | 455 kts | 151° |
| 2026-04-28 16:55 | 18.56533 | -64.29246 | 35023 ft | 455 kts | 151° |
| 2026-04-28 16:56 | 18.51057 | -64.25981 | 35023 ft | 455 kts | 150° |
| 2026-04-28 16:56 | 18.45545 | -64.22691 | 35023 ft | 455 kts | 150° |
| 2026-04-28 16:57 | 18.40028 | -64.19413 | 35025 ft | 455 kts | 151° |
| 2026-04-28 16:57 | 18.34511 | -64.16132 | 35024 ft | 455 kts | 151° |
| 2026-04-28 16:58 | 18.28991 | -64.12856 | 35025 ft | 455 kts | 151° |
| 2026-04-28 16:58 | 18.23505 | -64.09608 | 34847 ft | 455 kts | 151° |
| 2026-04-28 16:58 | 18.20747 | -64.07969 | 34597 ft | 455 kts | 151° |
| 2026-04-28 16:59 | 18.17992 | -64.06333 | 34346 ft | 455 kts | 151° |
| 2026-04-28 16:59 | 18.15231 | -64.04698 | 34098 ft | 456 kts | 151° |
| 2026-04-28 16:59 | 18.12467 | -64.03064 | 33848 ft | 456 kts | 151° |
| 2026-04-28 16:59 | 18.09701 | -64.01429 | 33599 ft | 456 kts | 151° |
| 2026-04-28 17:00 | 18.06934 | -63.99788 | 33349 ft | 457 kts | 151° |
| 2026-04-28 17:00 | 18.04165 | -63.98145 | 32800 ft | 458 kts | 151° |
| 2026-04-28 17:00 | 18.01404 | -63.96508 | 31797 ft | 465 kts | 151° |
| 2026-04-28 17:00 | 17.98578 | -63.94837 | 30902 ft | 467 kts | 151° |
| 2026-04-28 17:01 | 17.95737 | -63.93164 | 29859 ft | 471 kts | 151° |
| 2026-04-28 17:01 | 17.92873 | -63.91480 | 28973 ft | 471 kts | 151° |
| 2026-04-28 17:01 | 17.90036 | -63.89811 | 28398 ft | 464 kts | 151° |
| 2026-04-28 17:01 | 17.87237 | -63.88157 | 27729 ft | 460 kts | 151° |
| 2026-04-28 17:02 | 17.84460 | -63.86512 | 27082 ft | 456 kts | 151° |
| 2026-04-28 17:02 | 17.81712 | -63.84887 | 26432 ft | 451 kts | 151° |
| 2026-04-28 17:02 | 17.78990 | -63.83278 | 25793 ft | 447 kts | 151° |
| 2026-04-28 17:02 | 17.76331 | -63.81710 | 25168 ft | 443 kts | 151° |
| 2026-04-28 17:03 | 17.71005 | -63.78573 | 23918 ft | 435 kts | 151° |
| 2026-04-28 17:03 | 17.68380 | -63.77026 | 23298 ft | 431 kts | 151° |
| 2026-04-28 17:03 | 17.65779 | -63.75496 | 22687 ft | 427 kts | 151° |
| 2026-04-28 17:04 | 17.60658 | -63.72479 | 21533 ft | 418 kts | 151° |
| 2026-04-28 17:04 | 17.58126 | -63.70993 | 20985 ft | 415 kts | 151° |
| 2026-04-28 17:05 | 17.53285 | -63.67826 | 19932 ft | 408 kts | 139° |
| 2026-04-28 17:05 | 17.51385 | -63.65692 | 19422 ft | 406 kts | 127° |
| 2026-04-28 17:05 | 17.49949 | -63.63162 | 18900 ft | 404 kts | 114° |
| 2026-04-28 17:06 | 17.48414 | -63.57540 | 17818 ft | 400 kts | 103° |
| 2026-04-28 17:06 | 17.47779 | -63.54713 | 17259 ft | 398 kts | 103° |
| 2026-04-28 17:06 | 17.46506 | -63.49097 | 16123 ft | 394 kts | 104° |
| 2026-04-28 17:07 | 17.45871 | -63.46312 | 15529 ft | 392 kts | 104° |
| 2026-04-28 17:07 | 17.45249 | -63.43578 | 14955 ft | 390 kts | 103° |
| 2026-04-28 17:07 | 17.44626 | -63.40826 | 14361 ft | 387 kts | 103° |
| 2026-04-28 17:07 | 17.44008 | -63.38091 | 13765 ft | 384 kts | 103° |
| 2026-04-28 17:08 | 17.43395 | -63.35379 | 13167 ft | 381 kts | 103° |
| 2026-04-28 17:08 | 17.42786 | -63.32691 | 12577 ft | 378 kts | 103° |
| 2026-04-28 17:08 | 17.42181 | -63.30025 | 11985 ft | 375 kts | 104° |
| 2026-04-28 17:08 | 17.41578 | -63.27383 | 11398 ft | 371 kts | 104° |
| 2026-04-28 17:09 | 17.40979 | -63.24764 | 10813 ft | 368 kts | 104° |
| 2026-04-28 17:09 | 17.40395 | -63.22195 | 10582 ft | 355 kts | 104° |
| 2026-04-28 17:09 | 17.39844 | -63.19766 | 10453 ft | 341 kts | 104° |
| 2026-04-28 17:09 | 17.39306 | -63.17400 | 10325 ft | 328 kts | 104° |
| 2026-04-28 17:10 | 17.38785 | -63.15120 | 10198 ft | 316 kts | 104° |
| 2026-04-28 17:10 | 17.38283 | -63.12921 | 10080 ft | 305 kts | 104° |
| 2026-04-28 17:10 | 17.37797 | -63.10790 | 9880 ft | 297 kts | 104° |
| 2026-04-28 17:10 | 17.37317 | -63.08690 | 9532 ft | 297 kts | 104° |
| 2026-04-28 17:11 | 17.36838 | -63.06602 | 9202 ft | 295 kts | 104° |
| 2026-04-28 17:11 | 17.36361 | -63.04515 | 8874 ft | 293 kts | 104° |
| 2026-04-28 17:11 | 17.35847 | -63.02450 | 8464 ft | 293 kts | 111° |
| 2026-04-28 17:11 | 17.34904 | -63.00623 | 8195 ft | 288 kts | 129° |
| 2026-04-28 17:12 | 17.33464 | -62.99198 | 7748 ft | 284 kts | 147° |
| 2026-04-28 17:12 | 17.31722 | -62.98271 | 7208 ft | 279 kts | 157° |
| 2026-04-28 17:12 | 17.29974 | -62.97462 | 6806 ft | 270 kts | 156° |
| 2026-04-28 17:12 | 17.28286 | -62.96673 | 6438 ft | 261 kts | 156° |
| 2026-04-28 17:13 | 17.26739 | -62.95748 | 6084 ft | 252 kts | 147° |
| 2026-04-28 17:13 | 17.25305 | -62.94752 | 5729 ft | 243 kts | 147° |
| 2026-04-28 17:13 | 17.23917 | -62.93797 | 5397 ft | 235 kts | 147° |
| 2026-04-28 17:13 | 17.22580 | -62.92885 | 5041 ft | 231 kts | 147° |
| 2026-04-28 17:14 | 17.21257 | -62.91975 | 4703 ft | 226 kts | 145° |
| 2026-04-28 17:14 | 17.20252 | -62.90746 | 4368 ft | 226 kts | 109° |
| 2026-04-28 17:14 | 17.20243 | -62.89158 | 4051 ft | 219 kts | 67° |
| 2026-04-28 17:14 | 17.21001 | -62.87818 | 3760 ft | 213 kts | 56° |
| 2026-04-28 17:15 | 17.21823 | -62.86529 | 3454 ft | 213 kts | 56° |
| 2026-04-28 17:15 | 17.22646 | -62.85241 | 3151 ft | 212 kts | 56° |
| 2026-04-28 17:15 | 17.23453 | -62.83977 | 2858 ft | 206 kts | 56° |
| 2026-04-28 17:15 | 17.24225 | -62.82769 | 2602 ft | 194 kts | 56° |
| 2026-04-28 17:16 | 17.24951 | -62.81636 | 2309 ft | 186 kts | 56° |
| 2026-04-28 17:16 | 17.25670 | -62.80541 | 2033 ft | 178 kts | 55° |
| 2026-04-28 17:16 | 17.26356 | -62.79503 | 1814 ft | 167 kts | 56° |
| 2026-04-28 17:16 | 17.26960 | -62.78552 | 1742 ft | 150 kts | 58° |
| 2026-04-28 17:17 | 17.27516 | -62.77602 | 1581 ft | 155 kts | 59° |
| 2026-04-28 17:17 | 17.28074 | -62.76643 | 1339 ft | 154 kts | 58° |
| 2026-04-28 17:17 | 17.28678 | -62.75716 | 1046 ft | 154 kts | 55° |
| 2026-04-28 17:17 | 17.29276 | -62.74789 | 754 ft | 154 kts | 58° |
| 2026-04-28 17:18 | 17.29855 | -62.73850 | 481 ft | 153 kts | 56° |
| 2026-04-28 17:18 | 17.30430 | -62.72959 | 255 ft | 145 kts | 56° |
| 2026-04-28 17:18 | 17.30941 | -62.72153 | 175 ft | 108 kts | 56° |
| 2026-04-28 17:18 | 17.31249 | -62.71669 | 171 ft | 53 kts | 57° |
| 2026-04-28 17:19 | 17.31380 | -62.71458 | 167 ft | 16 kts | 57° |
| 2026-04-28 17:19 | 17.31430 | -62.71367 | 167 ft | 8 kts | 101° |
| 2026-04-28 17:19 | 17.31374 | -62.71379 | 166 ft | 11 kts | 212° |
| 2026-04-28 17:19 | 17.31291 | -62.71433 | 161 ft | 17 kts | 209° |
| 2026-04-28 17:20 | 17.31223 | -62.71486 | 160 ft | 7 kts | 230° |
| 2026-04-28 17:20 | 17.31204 | -62.71520 | 160 ft | 9 kts | 239° |
| 2026-04-28 17:20 | 17.31148 | -62.71605 | 160 ft | 12 kts | 223° |
| 2026-04-28 17:20 | 17.31072 | -62.71642 | 160 ft | 14 kts | 233° |
| 2026-04-28 17:21 | 17.31017 | -62.71691 | 160 ft | 11 kts | 168° |
| 2026-04-28 17:21 | 17.30981 | -62.71669 | 160 ft | 3 kts | 145° |
| 2026-04-28 17:21 | 17.30978 | -62.71667 | 160 ft | 0 kts | 145° |